Seaspan Elbe — VRNY5 — position and weather

sailwx.info

Track history (hours):
 
Tides and Currents Weather Stations Pressure Air Temp Water Temp Dewpoint Dewpoint Depression Visibility Wind Speed Wind Dir Waves Ship Positions

Seaspan Elbe

Last reported at 2017-Sep-21 03:29 UTC. Time now 2017-Sep-21 03:36 UTC.
Position N 29°53' E 122°03'.

Length 336 m; draft 10.7 m.

Type: Ship (hazmat cat A). MMSI: 477790500.

Date/timePositionNaut miles runAvg speedWind from/ knotsBaromVisibWave heightAir tempDewpointWater temp
2017-Sep-21 03:29N 29°53' E 122°03'0 0.0
2017-Sep-21 02:53N 29°53' E 122°03'0 0.0
2017-Sep-21 02:23N 29°53' E 122°03'0 0.0
2017-Sep-21 01:47N 29°53' E 122°03'0 0.0
2017-Sep-21 00:23N 29°53' E 122°03'0 0.0
2017-Sep-20 23:59N 29°53' E 122°03'0 0.0
2017-Sep-20 23:29N 29°53' E 122°03'0 0.0
2017-Sep-20 22:53N 29°53' E 122°03'0 0.0
2017-Sep-20 22:29N 29°53' E 122°03'0 0.0
2017-Sep-20 21:47N 29°53' E 122°03'0 0.0
2017-Sep-20 21:29N 29°53' E 122°03'0 0.0
2017-Sep-20 20:23N 29°53' E 122°03'0 0.0
2017-Sep-20 18:23N 29°53' E 122°03'0 0.0
2017-Sep-20 17:59N 29°53' E 122°03'0 0.0
2017-Sep-20 17:29N 29°53' E 122°03'0 0.0
2017-Sep-20 16:26N 29°53' E 122°03'1 1.4
2017-Sep-20 16:00N 29°54' E 122°04'2 3.6
2017-Sep-20 15:29N 29°55' E 122°06'4 8.3
2017-Sep-20 15:00N 29°54' E 122°10'1211.7
2017-Sep-20 14:00N 29°45' E 122°19'510.5
2017-Sep-20 13:30N 29°44' E 122°25'4 7.1
2017-Sep-20 13:00N 29°44' E 122°29'3 6.8
2017-Sep-20 12:30N 29°46' E 122°32'0 0.4
2017-Sep-20 11:55N 29°46' E 122°32'0 0.1
2017-Sep-20 11:24N 29°46' E 122°32'0 0.1
2017-Sep-20 11:00N 29°46' E 122°32'0 0.0
2017-Sep-20 10:01N 29°46' E 122°32'0 0.0
2017-Sep-20 09:06N 29°45' E 122°32'0 0.3
2017-Sep-20 08:54N 29°45' E 122°32'0 0.0
2017-Sep-20 08:31N 29°45' E 122°32'0 0.1
2017-Sep-20 07:36N 29°45' E 122°32'0 0.1
2017-Sep-20 07:30N 29°45' E 122°32'0 0.1
2017-Sep-20 06:57N 29°45' E 122°32'0 0.1
2017-Sep-20 06:24N 29°45' E 122°32'0 0.2
2017-Sep-20 05:57N 29°46' E 122°32'0 0.1
2017-Sep-20 05:31N 29°46' E 122°32'0 0.1
2017-Sep-20 04:54N 29°46' E 122°32'0 0.1
2017-Sep-20 04:24N 29°46' E 122°32'0 0.1
2017-Sep-20 03:54N 29°46' E 122°32'0 0.1
2017-Sep-20 03:25N 29°46' E 122°32'0 0.1
2017-Sep-20 02:42N 29°46' E 122°32'0 0.0
2017-Sep-20 02:31N 29°46' E 122°32'0 0.0
2017-Sep-20 01:54N 29°46' E 122°32'0 0.1
2017-Sep-20 00:25N 29°46' E 122°32'0 0.1
2017-Sep-19 23:18N 29°46' E 122°32'0 0.1
2017-Sep-19 23:00N 29°46' E 122°32'0 0.1
2017-Sep-19 22:30N 29°46' E 122°32'0 0.1
2017-Sep-19 21:48N 29°45' E 122°32'0 0.0
2017-Sep-19 21:19N 29°45' E 122°32'0 0.1
2017-Sep-19 21:00N 29°45' E 122°32'0 0.2
2017-Sep-19 20:30N 29°45' E 122°32'1 2.8
2017-Sep-19 20:00N 29°45' E 122°33'4 8.2
2017-Sep-19 19:29N 29°47' E 122°38'3 7.0
2017-Sep-19 19:00N 29°48' E 122°41'610.8
2017-Sep-19 18:29N 29°51' E 122°47'811.9
2017-Sep-19 17:46N 29°54' E 122°56'26 9.0
2017-Sep-19 14:55N 30°20' E 122°55'511.8
2017-Sep-19 14:29N 30°24' E 122°51'611.7
2017-Sep-19 13:59N 30°28' E 122°46'36 7.6
2017-Sep-19 09:14N 30°36' E 122°05'0 0.0
2017-Sep-18 19:29N 30°36' E 122°05'0 0.0
2017-Sep-18 18:53N 30°36' E 122°05'0 0.0
2017-Sep-18 18:11N 30°36' E 122°05'0 0.0
2017-Sep-18 17:59N 30°36' E 122°05'0 0.0
2017-Sep-18 16:53N 30°36' E 122°05'0 0.0
2017-Sep-18 15:32N 30°36' E 122°05'0 0.0
2017-Sep-18 15:29N 30°36' E 122°05'0 0.0
2017-Sep-18 14:53N 30°36' E 122°05'0 0.0
2017-Sep-18 13:38N 30°36' E 122°05'3 3.0
2017-Sep-18 12:39N 30°35' E 122°08'314.6
2017-Sep-18 12:28N 30°34' E 122°11'612.8
2017-Sep-18 11:59N 30°33' E 122°18'919.3
2017-Sep-18 11:30N 30°31' E 122°28'917.2
2017-Sep-18 10:58N 30°30' E 122°39'4 9.0
2017-Sep-18 10:30N 30°26' E 122°42'0 0.1
2017-Sep-18 08:26N 30°26' E 122°42'0 0.0
2017-Sep-18 06:44N 30°26' E 122°42'0 0.1
2017-Sep-18 06:09N 30°26' E 122°42'0 0.0
2017-Sep-18 05:56N 30°26' E 122°42'0 0.0
2017-Sep-18 05:14N 30°26' E 122°42'0 0.0
2017-Sep-17 21:08N 30°26' E 122°42'0 0.0
2017-Sep-17 20:41N 30°26' E 122°42'0 0.1
2017-Sep-17 19:43N 30°26' E 122°42'3 8.8
2017-Sep-17 19:24N 30°27' E 122°45'811.6
2017-Sep-17 18:44N 30°23' E 122°53'311.8
2017-Sep-17 18:31N 30°21' E 122°55'1110.3
2017-Sep-17 17:27N 30°13' E 123°03'711.2
2017-Sep-17 16:48N 30°06' E 123°06'411.2
2017-Sep-17 16:29N 30°03' E 123°07'13610.9
2017-Sep-17 04:00N 27°54' E 122°18'19610.2 360 / 201010.9 5.4 27.024.327.0
2017-Sep-16 08:44N 25°11' E 120°16'311.5
2017-Sep-16 08:26N 25°09' E 120°13'610.0
2017-Sep-16 07:53N 25°06' E 120°08'3 9.4
2017-Sep-16 07:30N 25°03' E 120°05'5 9.8
2017-Sep-16 07:00N 25°00' E 120°01'5 9.9
2017-Sep-16 06:30N 24°57' E 119°57'5 9.9
2017-Sep-16 06:00N 24°54' E 119°52'610.5
2017-Sep-16 05:23N 24°50' E 119°47'410.2
2017-Sep-16 04:57N 24°47' E 119°43'510.1
2017-Sep-16 04:30N 24°44' E 119°39'510.0
2017-Sep-16 04:00N 24°41' E 119°35'7443.7
2017-Sep-16 04:00N 24°36' E 119°30'2 3.5 360 / 101008.9 5.4 29.026.329.0
2017-Sep-16 03:30N 24°37' E 119°31'8 9.6
2017-Sep-16 02:37N 24°31' E 119°25'1 9.9
2017-Sep-16 02:30N 24°31' E 119°24'5 9.5
2017-Sep-16 02:00N 24°28' E 119°20'5 9.4
2017-Sep-16 01:30N 24°25' E 119°15'5 9.2
2017-Sep-16 01:00N 24°22' E 119°11'611.1
2017-Sep-16 00:30N 24°19' E 119°06'612.0
2017-Sep-16 00:00N 24°15' E 119°01'612.4
2017-Sep-15 23:30N 24°12' E 118°55'612.4
2017-Sep-15 23:00N 24°09' E 118°50'712.9
2017-Sep-15 22:30N 24°05' E 118°44'713.3
2017-Sep-15 22:00N 24°01' E 118°38'2013.2
2017-Sep-15 20:29N 23°50' E 118°20'714.4
2017-Sep-15 20:00N 23°45' E 118°14'1614.4
2017-Sep-15 18:53N 23°34' E 118°02'613.6
2017-Sep-15 18:28N 23°31' E 117°57'4212.9
2017-Sep-15 15:14N 23°04' E 117°22'313.1
2017-Sep-15 15:00N 23°03' E 117°19'209 6.0
2017-Sep-14 04:00N 21°06' E 114°12'35814.9 080 / 321006.9 5.4 29.027.728.0
2017-Sep-13 04:00N 15°18' E 112°42'36115.0 350 / 271005.9 2.2 29.027.727.0
2017-Sep-12 04:00N 09°54' E 110°00'34714.5 270 / 151010.9 5.4 32.028.129.0
2017-Sep-11 04:00N 05°12' E 106°36'   210 / 51011.9 5.4 30.027.430.0
Track history (hours):
 
Tides and Currents Weather Stations Pressure Air Temp Water Temp Dewpoint Dewpoint Depression Visibility Wind Speed Wind Dir Waves Ship Positions

Seaspan Elbe

Last reported at 2017-Sep-21 03:29 UTC. Time now 2017-Sep-21 03:36 UTC.
Position N 29°53' E 122°03'.

Length 336 m; draft 10.7 m.

Type: Ship (hazmat cat A). MMSI: 477790500.

Date/timePositionNaut miles runAvg speedWind from/ knotsBaromVisibWave heightAir tempDewpointWater temp
2017-Sep-21 03:29N 29°53' E 122°03'0 0.0
2017-Sep-21 02:53N 29°53' E 122°03'0 0.0
2017-Sep-21 02:23N 29°53' E 122°03'0 0.0
2017-Sep-21 01:47N 29°53' E 122°03'0 0.0
2017-Sep-21 00:23N 29°53' E 122°03'0 0.0
2017-Sep-20 23:59N 29°53' E 122°03'0 0.0
2017-Sep-20 23:29N 29°53' E 122°03'0 0.0
2017-Sep-20 22:53N 29°53' E 122°03'0 0.0
2017-Sep-20 22:29N 29°53' E 122°03'0 0.0
2017-Sep-20 21:47N 29°53' E 122°03'0 0.0
2017-Sep-20 21:29N 29°53' E 122°03'0 0.0
2017-Sep-20 20:23N 29°53' E 122°03'0 0.0
2017-Sep-20 18:23N 29°53' E 122°03'0 0.0
2017-Sep-20 17:59N 29°53' E 122°03'0 0.0
2017-Sep-20 17:29N 29°53' E 122°03'0 0.0
2017-Sep-20 16:26N 29°53' E 122°03'1 1.4
2017-Sep-20 16:00N 29°54' E 122°04'2 3.6
2017-Sep-20 15:29N 29°55' E 122°06'4 8.3
2017-Sep-20 15:00N 29°54' E 122°10'1211.7
2017-Sep-20 14:00N 29°45' E 122°19'510.5
2017-Sep-20 13:30N 29°44' E 122°25'4 7.1
2017-Sep-20 13:00N 29°44' E 122°29'3 6.8
2017-Sep-20 12:30N 29°46' E 122°32'0 0.4
2017-Sep-20 11:55N 29°46' E 122°32'0 0.1
2017-Sep-20 11:24N 29°46' E 122°32'0 0.1
2017-Sep-20 11:00N 29°46' E 122°32'0 0.0
2017-Sep-20 10:01N 29°46' E 122°32'0 0.0
2017-Sep-20 09:06N 29°45' E 122°32'0 0.3
2017-Sep-20 08:54N 29°45' E 122°32'0 0.0
2017-Sep-20 08:31N 29°45' E 122°32'0 0.1
2017-Sep-20 07:36N 29°45' E 122°32'0 0.1
2017-Sep-20 07:30N 29°45' E 122°32'0 0.1
2017-Sep-20 06:57N 29°45' E 122°32'0 0.1
2017-Sep-20 06:24N 29°45' E 122°32'0 0.2
2017-Sep-20 05:57N 29°46' E 122°32'0 0.1
2017-Sep-20 05:31N 29°46' E 122°32'0 0.1
2017-Sep-20 04:54N 29°46' E 122°32'0 0.1
2017-Sep-20 04:24N 29°46' E 122°32'0 0.1
2017-Sep-20 03:54N 29°46' E 122°32'0 0.1
2017-Sep-20 03:25N 29°46' E 122°32'0 0.1
2017-Sep-20 02:42N 29°46' E 122°32'0 0.0
2017-Sep-20 02:31N 29°46' E 122°32'0 0.0
2017-Sep-20 01:54N 29°46' E 122°32'0 0.1
2017-Sep-20 00:25N 29°46' E 122°32'0 0.1
2017-Sep-19 23:18N 29°46' E 122°32'0 0.1
2017-Sep-19 23:00N 29°46' E 122°32'0 0.1
2017-Sep-19 22:30N 29°46' E 122°32'0 0.1
2017-Sep-19 21:48N 29°45' E 122°32'0 0.0
2017-Sep-19 21:19N 29°45' E 122°32'0 0.1
2017-Sep-19 21:00N 29°45' E 122°32'0 0.2
2017-Sep-19 20:30N 29°45' E 122°32'1 2.8
2017-Sep-19 20:00N 29°45' E 122°33'4 8.2
2017-Sep-19 19:29N 29°47' E 122°38'3 7.0
2017-Sep-19 19:00N 29°48' E 122°41'610.8
2017-Sep-19 18:29N 29°51' E 122°47'811.9
2017-Sep-19 17:46N 29°54' E 122°56'26 9.0
2017-Sep-19 14:55N 30°20' E 122°55'511.8
2017-Sep-19 14:29N 30°24' E 122°51'611.7
2017-Sep-19 13:59N 30°28' E 122°46'36 7.6
2017-Sep-19 09:14N 30°36' E 122°05'0 0.0
2017-Sep-18 19:29N 30°36' E 122°05'0 0.0
2017-Sep-18 18:53N 30°36' E 122°05'0 0.0
2017-Sep-18 18:11N 30°36' E 122°05'0 0.0
2017-Sep-18 17:59N 30°36' E 122°05'0 0.0
2017-Sep-18 16:53N 30°36' E 122°05'0 0.0
2017-Sep-18 15:32N 30°36' E 122°05'0 0.0
2017-Sep-18 15:29N 30°36' E 122°05'0 0.0
2017-Sep-18 14:53N 30°36' E 122°05'0 0.0
2017-Sep-18 13:38N 30°36' E 122°05'3 3.0
2017-Sep-18 12:39N 30°35' E 122°08'314.6
2017-Sep-18 12:28N 30°34' E 122°11'612.8
2017-Sep-18 11:59N 30°33' E 122°18'919.3
2017-Sep-18 11:30N 30°31' E 122°28'917.2
2017-Sep-18 10:58N 30°30' E 122°39'4 9.0
2017-Sep-18 10:30N 30°26' E 122°42'0 0.1
2017-Sep-18 08:26N 30°26' E 122°42'0 0.0
2017-Sep-18 06:44N 30°26' E 122°42'0 0.1
2017-Sep-18 06:09N 30°26' E 122°42'0 0.0
2017-Sep-18 05:56N 30°26' E 122°42'0 0.0
2017-Sep-18 05:14N 30°26' E 122°42'0 0.0
2017-Sep-17 21:08N 30°26' E 122°42'0 0.0
2017-Sep-17 20:41N 30°26' E 122°42'0 0.1
2017-Sep-17 19:43N 30°26' E 122°42'3 8.8
2017-Sep-17 19:24N 30°27' E 122°45'811.6
2017-Sep-17 18:44N 30°23' E 122°53'311.8
2017-Sep-17 18:31N 30°21' E 122°55'1110.3
2017-Sep-17 17:27N 30°13' E 123°03'711.2
2017-Sep-17 16:48N 30°06' E 123°06'411.2
2017-Sep-17 16:29N 30°03' E 123°07'13610.9
2017-Sep-17 04:00N 27°54' E 122°18'19610.2 360 / 201010.9 5.4 27.024.327.0
2017-Sep-16 08:44N 25°11' E 120°16'311.5
2017-Sep-16 08:26N 25°09' E 120°13'610.0
2017-Sep-16 07:53N 25°06' E 120°08'3 9.4
2017-Sep-16 07:30N 25°03' E 120°05'5 9.8
2017-Sep-16 07:00N 25°00' E 120°01'5 9.9
2017-Sep-16 06:30N 24°57' E 119°57'5 9.9
2017-Sep-16 06:00N 24°54' E 119°52'610.5
2017-Sep-16 05:23N 24°50' E 119°47'410.2
2017-Sep-16 04:57N 24°47' E 119°43'510.1
2017-Sep-16 04:30N 24°44' E 119°39'510.0
2017-Sep-16 04:00N 24°41' E 119°35'7443.7
2017-Sep-16 04:00N 24°36' E 119°30'2 3.5 360 / 101008.9 5.4 29.026.329.0
2017-Sep-16 03:30N 24°37' E 119°31'8 9.6
2017-Sep-16 02:37N 24°31' E 119°25'1 9.9
2017-Sep-16 02:30N 24°31' E 119°24'5 9.5
2017-Sep-16 02:00N 24°28' E 119°20'5 9.4
2017-Sep-16 01:30N 24°25' E 119°15'5 9.2
2017-Sep-16 01:00N 24°22' E 119°11'611.1
2017-Sep-16 00:30N 24°19' E 119°06'612.0
2017-Sep-16 00:00N 24°15' E 119°01'612.4
2017-Sep-15 23:30N 24°12' E 118°55'612.4
2017-Sep-15 23:00N 24°09' E 118°50'712.9
2017-Sep-15 22:30N 24°05' E 118°44'713.3
2017-Sep-15 22:00N 24°01' E 118°38'2013.2
2017-Sep-15 20:29N 23°50' E 118°20'714.4
2017-Sep-15 20:00N 23°45' E 118°14'1614.4
2017-Sep-15 18:53N 23°34' E 118°02'613.6
2017-Sep-15 18:28N 23°31' E 117°57'4212.9
2017-Sep-15 15:14N 23°04' E 117°22'313.1
2017-Sep-15 15:00N 23°03' E 117°19'209 6.0
2017-Sep-14 04:00N 21°06' E 114°12'35814.9 080 / 321006.9 5.4 29.027.728.0
2017-Sep-13 04:00N 15°18' E 112°42'36115.0 350 / 271005.9 2.2 29.027.727.0
2017-Sep-12 04:00N 09°54' E 110°00'34714.5 270 / 151010.9 5.4 32.028.129.0
2017-Sep-11 04:00N 05°12' E 106°36'   210 / 51011.9 5.4 30.027.430.0

Dump ship's entire track history